sensor_id;sensor_type;location;lat;lon;timestamp;P1;durP1;ratioP1;P2;durP2;ratioP2
29044;SDS011;16133;49.486;12.176;2024-02-23T00:02:13;0.77;;;0.70;;
29044;SDS011;16133;49.486;12.176;2024-02-23T00:04:39;1.33;;;0.73;;
29044;SDS011;16133;49.486;12.176;2024-02-23T00:07:04;2.15;;;0.95;;
29044;SDS011;16133;49.486;12.176;2024-02-23T00:09:29;1.38;;;1.00;;
29044;SDS011;16133;49.486;12.176;2024-02-23T00:11:55;1.75;;;1.00;;
29044;SDS011;16133;49.486;12.176;2024-02-23T00:14:20;2.03;;;0.98;;
29044;SDS011;16133;49.486;12.176;2024-02-23T00:16:45;1.77;;;0.85;;
29044;SDS011;16133;49.486;12.176;2024-02-23T00:19:11;1.00;;;0.90;;
29044;SDS011;16133;49.486;12.176;2024-02-23T00:21:37;3.88;;;1.73;;
29044;SDS011;16133;49.486;12.176;2024-02-23T00:24:03;1.27;;;1.10;;
29044;SDS011;16133;49.486;12.176;2024-02-23T00:26:29;0.88;;;0.70;;
29044;SDS011;16133;49.486;12.176;2024-02-23T00:28:54;1.10;;;0.57;;
29044;SDS011;16133;49.486;12.176;2024-02-23T00:31:21;0.88;;;0.50;;
29044;SDS011;16133;49.486;12.176;2024-02-23T00:33:46;1.20;;;0.50;;
29044;SDS011;16133;49.486;12.176;2024-02-23T00:36:12;0.45;;;0.40;;
29044;SDS011;16133;49.486;12.176;2024-02-23T00:38:37;1.92;;;0.40;;
29044;SDS011;16133;49.486;12.176;2024-02-23T00:41:02;0.40;;;0.40;;
29044;SDS011;16133;49.486;12.176;2024-02-23T00:43:28;0.50;;;0.40;;
29044;SDS011;16133;49.486;12.176;2024-02-23T00:45:54;1.75;;;0.40;;
29044;SDS011;16133;49.486;12.176;2024-02-23T00:48:20;0.98;;;0.50;;
29044;SDS011;16133;49.486;12.176;2024-02-23T00:50:45;1.00;;;0.43;;
29044;SDS011;16133;49.486;12.176;2024-02-23T00:53:11;0.55;;;0.40;;
29044;SDS011;16133;49.486;12.176;2024-02-23T00:55:40;0.73;;;0.40;;
29044;SDS011;16133;49.486;12.176;2024-02-23T00:58:05;1.02;;;0.47;;
29044;SDS011;16133;49.486;12.176;2024-02-23T01:00:31;0.57;;;0.30;;
29044;SDS011;16133;49.486;12.176;2024-02-23T01:02:57;2.05;;;0.45;;
29044;SDS011;16133;49.486;12.176;2024-02-23T01:05:24;2.95;;;0.82;;
29044;SDS011;16133;49.486;12.176;2024-02-23T01:07:50;1.58;;;0.40;;
29044;SDS011;16133;49.486;12.176;2024-02-23T01:10:15;1.92;;;0.47;;
29044;SDS011;16133;49.486;12.176;2024-02-23T01:12:40;3.13;;;0.63;;
29044;SDS011;16133;49.486;12.176;2024-02-23T01:15:06;0.55;;;0.30;;
29044;SDS011;16133;49.486;12.176;2024-02-23T01:17:31;3.60;;;1.30;;
29044;SDS011;16133;49.486;12.176;2024-02-23T01:19:57;0.85;;;0.45;;
29044;SDS011;16133;49.486;12.176;2024-02-23T01:22:22;1.20;;;0.43;;
29044;SDS011;16133;49.486;12.176;2024-02-23T01:24:47;0.68;;;0.57;;
29044;SDS011;16133;49.486;12.176;2024-02-23T01:27:13;0.20;;;0.20;;
29044;SDS011;16133;49.486;12.176;2024-02-23T01:29:38;0.52;;;0.20;;
29044;SDS011;16133;49.486;12.176;2024-02-23T01:32:03;0.38;;;0.17;;
29044;SDS011;16133;49.486;12.176;2024-02-23T01:34:29;0.52;;;0.30;;
29044;SDS011;16133;49.486;12.176;2024-02-23T01:36:54;0.10;;;0.10;;
29044;SDS011;16133;49.486;12.176;2024-02-23T01:39:20;0.17;;;0.15;;
29044;SDS011;16133;49.486;12.176;2024-02-23T01:41:45;0.52;;;0.30;;
29044;SDS011;16133;49.486;12.176;2024-02-23T01:44:11;0.17;;;0.10;;
29044;SDS011;16133;49.486;12.176;2024-02-23T01:46:36;0.25;;;0.15;;
29044;SDS011;16133;49.486;12.176;2024-02-23T01:49:02;0.10;;;0.10;;
29044;SDS011;16133;49.486;12.176;2024-02-23T01:51:28;0.38;;;0.20;;
29044;SDS011;16133;49.486;12.176;2024-02-23T01:53:54;0.20;;;0.20;;
29044;SDS011;16133;49.486;12.176;2024-02-23T01:56:20;0.30;;;0.20;;
29044;SDS011;16133;49.486;12.176;2024-02-23T01:58:46;0.30;;;0.17;;
29044;SDS011;16133;49.486;12.176;2024-02-23T02:01:12;0.20;;;0.20;;
29044;SDS011;16133;49.486;12.176;2024-02-23T02:03:40;0.20;;;0.20;;
29044;SDS011;16133;49.486;12.176;2024-02-23T02:06:06;0.15;;;0.10;;
29044;SDS011;16133;49.486;12.176;2024-02-23T02:08:34;1.65;;;0.22;;
29044;SDS011;16133;49.486;12.176;2024-02-23T02:11:00;0.10;;;0.10;;
29044;SDS011;16133;49.486;12.176;2024-02-23T02:13:27;0.10;;;0.10;;
29044;SDS011;16133;49.486;12.176;2024-02-23T02:15:53;0.10;;;0.10;;
29044;SDS011;16133;49.486;12.176;2024-02-23T02:18:19;0.10;;;0.10;;
29044;SDS011;16133;49.486;12.176;2024-02-23T02:20:50;0.20;;;0.15;;
29044;SDS011;16133;49.486;12.176;2024-02-23T02:23:17;0.10;;;0.10;;
29044;SDS011;16133;49.486;12.176;2024-02-23T02:25:43;4.63;;;0.57;;
29044;SDS011;16133;49.486;12.176;2024-02-23T02:28:08;0.38;;;0.20;;
29044;SDS011;16133;49.486;12.176;2024-02-23T02:30:34;2.53;;;0.20;;
29044;SDS011;16133;49.486;12.176;2024-02-23T02:32:59;1.05;;;0.20;;
29044;SDS011;16133;49.486;12.176;2024-02-23T02:35:24;0.20;;;0.10;;
29044;SDS011;16133;49.486;12.176;2024-02-23T02:37:50;0.43;;;0.30;;
29044;SDS011;16133;49.486;12.176;2024-02-23T02:40:15;0.52;;;0.20;;
29044;SDS011;16133;49.486;12.176;2024-02-23T02:42:41;0.75;;;0.30;;
29044;SDS011;16133;49.486;12.176;2024-02-23T02:45:06;0.73;;;0.55;;
29044;SDS011;16133;49.486;12.176;2024-02-23T02:47:32;0.20;;;0.20;;
29044;SDS011;16133;49.486;12.176;2024-02-23T02:49:57;0.57;;;0.20;;
29044;SDS011;16133;49.486;12.176;2024-02-23T02:52:23;0.17;;;0.10;;
29044;SDS011;16133;49.486;12.176;2024-02-23T02:54:49;0.28;;;0.15;;
29044;SDS011;16133;49.486;12.176;2024-02-23T02:57:15;0.65;;;0.30;;
29044;SDS011;16133;49.486;12.176;2024-02-23T02:59:40;0.20;;;0.20;;
29044;SDS011;16133;49.486;12.176;2024-02-23T03:02:05;0.93;;;0.32;;
29044;SDS011;16133;49.486;12.176;2024-02-23T03:04:31;0.25;;;0.10;;
29044;SDS011;16133;49.486;12.176;2024-02-23T03:06:56;0.40;;;0.28;;
29044;SDS011;16133;49.486;12.176;2024-02-23T03:09:21;0.30;;;0.20;;
29044;SDS011;16133;49.486;12.176;2024-02-23T03:11:49;0.22;;;0.10;;
29044;SDS011;16133;49.486;12.176;2024-02-23T03:14:15;1.30;;;0.13;;
29044;SDS011;16133;49.486;12.176;2024-02-23T03:16:43;0.63;;;0.20;;
29044;SDS011;16133;49.486;12.176;2024-02-23T03:19:08;1.55;;;0.20;;
29044;SDS011;16133;49.486;12.176;2024-02-23T03:21:34;1.05;;;0.20;;
29044;SDS011;16133;49.486;12.176;2024-02-23T03:23:59;0.40;;;0.20;;
29044;SDS011;16133;49.486;12.176;2024-02-23T03:26:24;0.20;;;0.17;;
29044;SDS011;16133;49.486;12.176;2024-02-23T03:28:50;0.85;;;0.20;;
29044;SDS011;16133;49.486;12.176;2024-02-23T03:31:15;0.22;;;0.22;;
29044;SDS011;16133;49.486;12.176;2024-02-23T03:33:44;0.82;;;0.20;;
29044;SDS011;16133;49.486;12.176;2024-02-23T03:36:09;0.93;;;0.30;;
29044;SDS011;16133;49.486;12.176;2024-02-23T03:38:34;0.90;;;0.30;;
29044;SDS011;16133;49.486;12.176;2024-02-23T03:41:00;0.47;;;0.30;;
29044;SDS011;16133;49.486;12.176;2024-02-23T03:43:26;0.20;;;0.20;;
29044;SDS011;16133;49.486;12.176;2024-02-23T03:45:52;3.00;;;1.17;;
29044;SDS011;16133;49.486;12.176;2024-02-23T03:48:17;3.17;;;1.70;;
29044;SDS011;16133;49.486;12.176;2024-02-23T03:50:42;2.58;;;1.60;;
29044;SDS011;16133;49.486;12.176;2024-02-23T03:53:08;3.78;;;2.00;;
29044;SDS011;16133;49.486;12.176;2024-02-23T03:55:33;1.45;;;1.20;;
29044;SDS011;16133;49.486;12.176;2024-02-23T03:57:58;1.83;;;0.60;;
29044;SDS011;16133;49.486;12.176;2024-02-23T04:00:24;3.17;;;0.50;;
29044;SDS011;16133;49.486;12.176;2024-02-23T04:02:49;0.73;;;0.40;;
29044;SDS011;16133;49.486;12.176;2024-02-23T04:05:15;0.70;;;0.55;;
29044;SDS011;16133;49.486;12.176;2024-02-23T04:07:40;1.27;;;0.70;;
29044;SDS011;16133;49.486;12.176;2024-02-23T04:10:06;1.05;;;0.50;;
29044;SDS011;16133;49.486;12.176;2024-02-23T04:12:32;0.63;;;0.40;;
29044;SDS011;16133;49.486;12.176;2024-02-23T04:14:57;0.70;;;0.50;;
29044;SDS011;16133;49.486;12.176;2024-02-23T04:17:23;0.80;;;0.40;;
29044;SDS011;16133;49.486;12.176;2024-02-23T04:19:48;1.42;;;0.50;;
29044;SDS011;16133;49.486;12.176;2024-02-23T04:22:16;2.60;;;0.60;;
29044;SDS011;16133;49.486;12.176;2024-02-23T04:24:42;0.30;;;0.30;;
29044;SDS011;16133;49.486;12.176;2024-02-23T04:27:07;1.35;;;0.50;;
29044;SDS011;16133;49.486;12.176;2024-02-23T04:29:33;1.27;;;1.17;;
29044;SDS011;16133;49.486;12.176;2024-02-23T04:32:02;4.50;;;1.65;;
29044;SDS011;16133;49.486;12.176;2024-02-23T04:34:28;0.75;;;0.40;;
29044;SDS011;16133;49.486;12.176;2024-02-23T04:36:53;2.63;;;0.55;;
29044;SDS011;16133;49.486;12.176;2024-02-23T04:39:19;1.70;;;1.00;;
29044;SDS011;16133;49.486;12.176;2024-02-23T04:41:45;0.70;;;0.50;;
29044;SDS011;16133;49.486;12.176;2024-02-23T04:44:10;1.52;;;0.55;;
29044;SDS011;16133;49.486;12.176;2024-02-23T04:46:35;4.35;;;0.75;;
29044;SDS011;16133;49.486;12.176;2024-02-23T04:49:01;1.55;;;0.45;;
29044;SDS011;16133;49.486;12.176;2024-02-23T04:51:27;1.20;;;0.40;;
29044;SDS011;16133;49.486;12.176;2024-02-23T04:53:52;3.63;;;0.70;;
29044;SDS011;16133;49.486;12.176;2024-02-23T04:56:18;3.20;;;0.63;;
29044;SDS011;16133;49.486;12.176;2024-02-23T04:58:44;1.38;;;0.70;;
29044;SDS011;16133;49.486;12.176;2024-02-23T05:01:10;2.42;;;0.70;;
29044;SDS011;16133;49.486;12.176;2024-02-23T05:03:36;2.30;;;0.88;;
29044;SDS011;16133;49.486;12.176;2024-02-23T05:06:02;2.05;;;0.45;;
29044;SDS011;16133;49.486;12.176;2024-02-23T05:08:27;1.67;;;0.40;;
29044;SDS011;16133;49.486;12.176;2024-02-23T05:10:55;3.45;;;0.50;;
29044;SDS011;16133;49.486;12.176;2024-02-23T05:13:20;2.00;;;0.50;;
29044;SDS011;16133;49.486;12.176;2024-02-23T05:15:46;1.02;;;0.35;;
29044;SDS011;16133;49.486;12.176;2024-02-23T05:18:11;5.05;;;0.70;;
29044;SDS011;16133;49.486;12.176;2024-02-23T05:20:36;1.85;;;0.60;;
29044;SDS011;16133;49.486;12.176;2024-02-23T05:23:02;3.80;;;0.55;;
29044;SDS011;16133;49.486;12.176;2024-02-23T05:25:27;0.57;;;0.45;;
29044;SDS011;16133;49.486;12.176;2024-02-23T05:27:56;2.55;;;0.60;;
29044;SDS011;16133;49.486;12.176;2024-02-23T05:30:21;2.97;;;0.43;;
29044;SDS011;16133;49.486;12.176;2024-02-23T05:32:47;1.92;;;0.70;;
29044;SDS011;16133;49.486;12.176;2024-02-23T05:35:12;5.95;;;1.17;;
29044;SDS011;16133;49.486;12.176;2024-02-23T05:37:38;1.75;;;0.45;;
29044;SDS011;16133;49.486;12.176;2024-02-23T05:40:03;0.80;;;0.45;;
29044;SDS011;16133;49.486;12.176;2024-02-23T05:42:35;1.30;;;0.60;;
29044;SDS011;16133;49.486;12.176;2024-02-23T05:45:00;1.92;;;0.60;;
29044;SDS011;16133;49.486;12.176;2024-02-23T05:47:26;1.77;;;0.43;;
29044;SDS011;16133;49.486;12.176;2024-02-23T05:49:51;1.10;;;0.43;;
29044;SDS011;16133;49.486;12.176;2024-02-23T05:52:16;3.75;;;0.55;;
29044;SDS011;16133;49.486;12.176;2024-02-23T05:54:41;2.85;;;0.80;;
29044;SDS011;16133;49.486;12.176;2024-02-23T05:57:07;2.92;;;1.08;;
29044;SDS011;16133;49.486;12.176;2024-02-23T05:59:33;2.08;;;0.65;;
29044;SDS011;16133;49.486;12.176;2024-02-23T06:01:59;2.88;;;0.80;;
29044;SDS011;16133;49.486;12.176;2024-02-23T06:04:24;2.60;;;0.80;;
29044;SDS011;16133;49.486;12.176;2024-02-23T06:06:50;2.88;;;0.90;;
29044;SDS011;16133;49.486;12.176;2024-02-23T06:09:15;3.60;;;1.17;;
29044;SDS011;16133;49.486;12.176;2024-02-23T06:11:41;3.80;;;1.33;;
29044;SDS011;16133;49.486;12.176;2024-02-23T06:14:07;1.40;;;0.98;;
29044;SDS011;16133;49.486;12.176;2024-02-23T06:16:32;4.53;;;2.65;;
29044;SDS011;16133;49.486;12.176;2024-02-23T06:18:58;5.63;;;3.30;;
29044;SDS011;16133;49.486;12.176;2024-02-23T06:21:23;2.00;;;1.80;;
29044;SDS011;16133;49.486;12.176;2024-02-23T06:23:49;2.97;;;1.65;;
29044;SDS011;16133;49.486;12.176;2024-02-23T06:26:14;5.55;;;3.20;;
29044;SDS011;16133;49.486;12.176;2024-02-23T06:28:40;14.63;;;6.25;;
29044;SDS011;16133;49.486;12.176;2024-02-23T06:31:06;7.57;;;3.53;;
29044;SDS011;16133;49.486;12.176;2024-02-23T06:33:32;13.10;;;6.93;;
29044;SDS011;16133;49.486;12.176;2024-02-23T06:35:58;18.25;;;8.65;;
29044;SDS011;16133;49.486;12.176;2024-02-23T06:38:23;17.45;;;8.90;;
29044;SDS011;16133;49.486;12.176;2024-02-23T06:40:48;9.32;;;3.42;;
29044;SDS011;16133;49.486;12.176;2024-02-23T06:43:14;4.95;;;2.70;;
29044;SDS011;16133;49.486;12.176;2024-02-23T06:45:39;6.35;;;4.32;;
29044;SDS011;16133;49.486;12.176;2024-02-23T06:48:05;6.93;;;4.55;;
29044;SDS011;16133;49.486;12.176;2024-02-23T06:50:30;5.03;;;3.03;;
29044;SDS011;16133;49.486;12.176;2024-02-23T06:52:56;5.60;;;3.45;;
29044;SDS011;16133;49.486;12.176;2024-02-23T06:55:21;5.07;;;2.25;;
29044;SDS011;16133;49.486;12.176;2024-02-23T06:57:46;2.75;;;1.83;;
29044;SDS011;16133;49.486;12.176;2024-02-23T07:00:12;7.18;;;1.70;;
29044;SDS011;16133;49.486;12.176;2024-02-23T07:02:38;1.75;;;1.50;;
29044;SDS011;16133;49.486;12.176;2024-02-23T07:05:03;4.53;;;2.10;;
29044;SDS011;16133;49.486;12.176;2024-02-23T07:07:29;4.85;;;1.90;;
29044;SDS011;16133;49.486;12.176;2024-02-23T07:09:55;4.55;;;1.95;;
29044;SDS011;16133;49.486;12.176;2024-02-23T07:12:21;5.93;;;1.52;;
29044;SDS011;16133;49.486;12.176;2024-02-23T07:14:46;2.33;;;1.58;;
29044;SDS011;16133;49.486;12.176;2024-02-23T07:17:16;5.80;;;1.63;;
29044;SDS011;16133;49.486;12.176;2024-02-23T07:19:42;4.07;;;3.35;;
29044;SDS011;16133;49.486;12.176;2024-02-23T07:22:07;1.88;;;0.90;;
29044;SDS011;16133;49.486;12.176;2024-02-23T07:24:32;3.17;;;1.23;;
29044;SDS011;16133;49.486;12.176;2024-02-23T07:26:58;6.60;;;1.88;;
29044;SDS011;16133;49.486;12.176;2024-02-23T07:29:23;2.38;;;1.95;;
29044;SDS011;16133;49.486;12.176;2024-02-23T07:31:49;3.58;;;1.27;;
29044;SDS011;16133;49.486;12.176;2024-02-23T07:34:14;1.55;;;1.08;;
29044;SDS011;16133;49.486;12.176;2024-02-23T07:36:39;2.33;;;1.13;;
29044;SDS011;16133;49.486;12.176;2024-02-23T07:39:05;1.23;;;0.80;;
29044;SDS011;16133;49.486;12.176;2024-02-23T07:41:31;4.85;;;1.13;;
29044;SDS011;16133;49.486;12.176;2024-02-23T07:43:56;6.18;;;1.45;;
29044;SDS011;16133;49.486;12.176;2024-02-23T07:46:21;1.25;;;0.70;;
29044;SDS011;16133;49.486;12.176;2024-02-23T07:48:48;1.88;;;1.00;;
29044;SDS011;16133;49.486;12.176;2024-02-23T07:51:13;1.50;;;0.65;;
29044;SDS011;16133;49.486;12.176;2024-02-23T07:53:38;1.30;;;1.08;;
29044;SDS011;16133;49.486;12.176;2024-02-23T07:56:04;1.77;;;0.70;;
29044;SDS011;16133;49.486;12.176;2024-02-23T07:58:32;5.30;;;1.60;;
29044;SDS011;16133;49.486;12.176;2024-02-23T08:00:57;5.20;;;1.92;;
29044;SDS011;16133;49.486;12.176;2024-02-23T08:03:22;3.33;;;1.90;;
29044;SDS011;16133;49.486;12.176;2024-02-23T08:05:48;2.85;;;1.92;;
29044;SDS011;16133;49.486;12.176;2024-02-23T08:08:13;2.05;;;1.83;;
29044;SDS011;16133;49.486;12.176;2024-02-23T08:10:38;3.83;;;1.65;;
29044;SDS011;16133;49.486;12.176;2024-02-23T08:13:04;1.10;;;0.82;;
29044;SDS011;16133;49.486;12.176;2024-02-23T08:15:29;2.22;;;1.40;;
29044;SDS011;16133;49.486;12.176;2024-02-23T08:17:55;3.17;;;1.42;;
29044;SDS011;16133;49.486;12.176;2024-02-23T08:20:20;2.63;;;1.95;;
29044;SDS011;16133;49.486;12.176;2024-02-23T08:22:46;1.73;;;1.40;;
29044;SDS011;16133;49.486;12.176;2024-02-23T08:25:11;6.50;;;1.85;;
29044;SDS011;16133;49.486;12.176;2024-02-23T08:27:37;3.13;;;1.42;;
29044;SDS011;16133;49.486;12.176;2024-02-23T08:30:02;3.53;;;1.30;;
29044;SDS011;16133;49.486;12.176;2024-02-23T08:32:28;2.90;;;1.45;;
29044;SDS011;16133;49.486;12.176;2024-02-23T08:34:53;3.33;;;2.03;;
29044;SDS011;16133;49.486;12.176;2024-02-23T08:37:24;2.42;;;0.90;;
29044;SDS011;16133;49.486;12.176;2024-02-23T08:39:52;4.88;;;0.80;;
29044;SDS011;16133;49.486;12.176;2024-02-23T08:42:18;2.83;;;1.25;;
29044;SDS011;16133;49.486;12.176;2024-02-23T08:44:43;1.35;;;0.60;;
29044;SDS011;16133;49.486;12.176;2024-02-23T08:47:09;1.25;;;0.90;;
29044;SDS011;16133;49.486;12.176;2024-02-23T08:49:34;2.75;;;1.20;;
29044;SDS011;16133;49.486;12.176;2024-02-23T08:52:00;8.18;;;2.33;;
29044;SDS011;16133;49.486;12.176;2024-02-23T08:54:25;14.15;;;4.25;;
29044;SDS011;16133;49.486;12.176;2024-02-23T08:56:50;7.75;;;3.63;;
29044;SDS011;16133;49.486;12.176;2024-02-23T08:59:16;5.38;;;1.85;;
29044;SDS011;16133;49.486;12.176;2024-02-23T09:01:41;8.48;;;1.92;;
29044;SDS011;16133;49.486;12.176;2024-02-23T09:04:06;2.67;;;1.20;;
29044;SDS011;16133;49.486;12.176;2024-02-23T09:06:32;1.92;;;0.88;;
29044;SDS011;16133;49.486;12.176;2024-02-23T09:08:58;2.28;;;0.90;;
29044;SDS011;16133;49.486;12.176;2024-02-23T09:11:23;1.52;;;0.80;;
29044;SDS011;16133;49.486;12.176;2024-02-23T09:13:49;3.33;;;2.85;;
29044;SDS011;16133;49.486;12.176;2024-02-23T09:16:14;90.45;;;50.15;;
29044;SDS011;16133;49.486;12.176;2024-02-23T09:18:40;65.95;;;36.53;;
29044;SDS011;16133;49.486;12.176;2024-02-23T09:21:05;61.58;;;36.05;;
29044;SDS011;16133;49.486;12.176;2024-02-23T09:23:31;56.03;;;35.15;;
29044;SDS011;16133;49.486;12.176;2024-02-23T09:25:59;42.50;;;26.33;;
29044;SDS011;16133;49.486;12.176;2024-02-23T09:28:24;30.52;;;21.70;;
29044;SDS011;16133;49.486;12.176;2024-02-23T09:30:50;13.57;;;8.82;;
29044;SDS011;16133;49.486;12.176;2024-02-23T09:33:15;5.97;;;4.30;;
29044;SDS011;16133;49.486;12.176;2024-02-23T09:35:40;3.05;;;2.72;;
29044;SDS011;16133;49.486;12.176;2024-02-23T09:38:06;1.77;;;1.48;;
29044;SDS011;16133;49.486;12.176;2024-02-23T09:40:31;2.42;;;1.08;;
29044;SDS011;16133;49.486;12.176;2024-02-23T09:42:57;4.55;;;0.93;;
29044;SDS011;16133;49.486;12.176;2024-02-23T09:45:26;4.20;;;0.50;;
29044;SDS011;16133;49.486;12.176;2024-02-23T09:47:53;2.08;;;0.80;;
29044;SDS011;16133;49.486;12.176;2024-02-23T09:50:20;3.72;;;0.65;;
29044;SDS011;16133;49.486;12.176;2024-02-23T09:52:48;1.58;;;0.88;;
29044;SDS011;16133;49.486;12.176;2024-02-23T09:55:15;0.50;;;0.38;;
29044;SDS011;16133;49.486;12.176;2024-02-23T09:57:41;4.93;;;0.50;;
29044;SDS011;16133;49.486;12.176;2024-02-23T10:00:07;8.30;;;1.20;;
29044;SDS011;16133;49.486;12.176;2024-02-23T10:02:34;2.50;;;0.40;;
29044;SDS011;16133;49.486;12.176;2024-02-23T10:05:01;1.00;;;0.45;;
29044;SDS011;16133;49.486;12.176;2024-02-23T10:07:30;3.30;;;0.45;;
29044;SDS011;16133;49.486;12.176;2024-02-23T10:09:56;1.13;;;0.57;;
29044;SDS011;16133;49.486;12.176;2024-02-23T10:12:21;0.52;;;0.30;;
29044;SDS011;16133;49.486;12.176;2024-02-23T10:14:46;0.90;;;0.35;;
29044;SDS011;16133;49.486;12.176;2024-02-23T10:17:12;3.45;;;0.90;;
29044;SDS011;16133;49.486;12.176;2024-02-23T10:19:37;1.40;;;0.35;;
29044;SDS011;16133;49.486;12.176;2024-02-23T10:22:03;2.90;;;0.70;;
29044;SDS011;16133;49.486;12.176;2024-02-23T10:24:29;2.40;;;0.45;;
29044;SDS011;16133;49.486;12.176;2024-02-23T10:26:54;2.47;;;0.35;;
29044;SDS011;16133;49.486;12.176;2024-02-23T10:29:20;2.95;;;0.43;;
29044;SDS011;16133;49.486;12.176;2024-02-23T10:31:46;1.42;;;0.50;;
29044;SDS011;16133;49.486;12.176;2024-02-23T10:34:14;1.75;;;0.50;;
29044;SDS011;16133;49.486;12.176;2024-02-23T10:36:44;0.82;;;0.30;;
29044;SDS011;16133;49.486;12.176;2024-02-23T10:39:12;3.83;;;1.40;;
29044;SDS011;16133;49.486;12.176;2024-02-23T10:41:43;1.35;;;0.70;;
29044;SDS011;16133;49.486;12.176;2024-02-23T10:44:13;2.28;;;0.80;;
29044;SDS011;16133;49.486;12.176;2024-02-23T10:46:41;1.42;;;0.93;;
29044;SDS011;16133;49.486;12.176;2024-02-23T10:49:07;1.45;;;0.40;;
29044;SDS011;16133;49.486;12.176;2024-02-23T10:51:32;11.15;;;2.85;;
29044;SDS011;16133;49.486;12.176;2024-02-23T10:53:59;0.80;;;0.60;;
29044;SDS011;16133;49.486;12.176;2024-02-23T10:56:25;3.47;;;0.80;;
29044;SDS011;16133;49.486;12.176;2024-02-23T10:58:52;3.40;;;0.65;;
29044;SDS011;16133;49.486;12.176;2024-02-23T11:01:17;2.97;;;0.57;;
29044;SDS011;16133;49.486;12.176;2024-02-23T11:03:44;4.10;;;0.47;;
29044;SDS011;16133;49.486;12.176;2024-02-23T11:06:14;1.58;;;0.50;;
29044;SDS011;16133;49.486;12.176;2024-02-23T11:08:41;3.92;;;0.50;;
29044;SDS011;16133;49.486;12.176;2024-02-23T11:11:11;0.85;;;0.45;;
29044;SDS011;16133;49.486;12.176;2024-02-23T11:13:37;2.10;;;0.60;;
29044;SDS011;16133;49.486;12.176;2024-02-23T11:16:07;2.90;;;0.50;;
29044;SDS011;16133;49.486;12.176;2024-02-23T11:18:36;1.92;;;0.35;;
29044;SDS011;16133;49.486;12.176;2024-02-23T11:21:04;0.70;;;0.40;;
29044;SDS011;16133;49.486;12.176;2024-02-23T11:23:43;1.17;;;0.30;;
29044;SDS011;16133;49.486;12.176;2024-02-23T11:26:10;1.45;;;0.30;;
29044;SDS011;16133;49.486;12.176;2024-02-23T11:28:42;1.45;;;0.45;;
29044;SDS011;16133;49.486;12.176;2024-02-23T11:31:12;0.80;;;0.30;;
29044;SDS011;16133;49.486;12.176;2024-02-23T11:33:39;1.10;;;0.40;;
29044;SDS011;16133;49.486;12.176;2024-02-23T11:36:04;4.38;;;0.70;;
29044;SDS011;16133;49.486;12.176;2024-02-23T11:38:33;0.82;;;0.40;;
29044;SDS011;16133;49.486;12.176;2024-02-23T11:41:02;0.52;;;0.30;;
29044;SDS011;16133;49.486;12.176;2024-02-23T11:43:28;0.98;;;0.20;;
29044;SDS011;16133;49.486;12.176;2024-02-23T11:45:54;0.40;;;0.35;;
29044;SDS011;16133;49.486;12.176;2024-02-23T11:48:19;1.58;;;0.38;;
29044;SDS011;16133;49.486;12.176;2024-02-23T11:50:47;3.90;;;0.30;;
29044;SDS011;16133;49.486;12.176;2024-02-23T11:53:13;0.88;;;0.30;;
29044;SDS011;16133;49.486;12.176;2024-02-23T11:55:39;1.30;;;0.50;;
29044;SDS011;16133;49.486;12.176;2024-02-23T11:58:05;0.45;;;0.32;;
29044;SDS011;16133;49.486;12.176;2024-02-23T12:00:31;2.53;;;0.70;;
29044;SDS011;16133;49.486;12.176;2024-02-23T12:02:56;1.73;;;0.70;;
29044;SDS011;16133;49.486;12.176;2024-02-23T12:05:22;1.33;;;0.40;;
29044;SDS011;16133;49.486;12.176;2024-02-23T12:07:47;2.88;;;0.40;;
29044;SDS011;16133;49.486;12.176;2024-02-23T12:10:13;2.13;;;0.50;;
29044;SDS011;16133;49.486;12.176;2024-02-23T12:12:39;0.70;;;0.40;;
29044;SDS011;16133;49.486;12.176;2024-02-23T12:15:05;1.58;;;0.50;;
29044;SDS011;16133;49.486;12.176;2024-02-23T12:17:31;0.68;;;0.38;;
29044;SDS011;16133;49.486;12.176;2024-02-23T12:20:00;3.60;;;0.60;;
29044;SDS011;16133;49.486;12.176;2024-02-23T12:22:26;0.60;;;0.30;;
29044;SDS011;16133;49.486;12.176;2024-02-23T12:24:52;2.25;;;0.40;;
29044;SDS011;16133;49.486;12.176;2024-02-23T12:27:17;4.10;;;0.70;;
29044;SDS011;16133;49.486;12.176;2024-02-23T12:29:50;1.85;;;0.50;;
29044;SDS011;16133;49.486;12.176;2024-02-23T12:32:19;2.03;;;0.60;;
29044;SDS011;16133;49.486;12.176;2024-02-23T12:34:45;0.80;;;0.63;;
29044;SDS011;16133;49.486;12.176;2024-02-23T12:37:11;1.33;;;0.40;;
29044;SDS011;16133;49.486;12.176;2024-02-23T12:39:40;2.90;;;0.52;;
29044;SDS011;16133;49.486;12.176;2024-02-23T12:42:05;4.53;;;1.17;;
29044;SDS011;16133;49.486;12.176;2024-02-23T12:44:30;3.35;;;0.93;;
29044;SDS011;16133;49.486;12.176;2024-02-23T12:46:56;2.40;;;0.60;;
29044;SDS011;16133;49.486;12.176;2024-02-23T12:49:21;1.58;;;0.77;;
29044;SDS011;16133;49.486;12.176;2024-02-23T12:51:46;3.40;;;0.95;;
29044;SDS011;16133;49.486;12.176;2024-02-23T12:54:12;3.75;;;1.40;;
29044;SDS011;16133;49.486;12.176;2024-02-23T12:56:37;1.45;;;0.75;;
29044;SDS011;16133;49.486;12.176;2024-02-23T12:59:02;1.10;;;0.75;;
29044;SDS011;16133;49.486;12.176;2024-02-23T13:01:28;1.40;;;0.93;;
29044;SDS011;16133;49.486;12.176;2024-02-23T13:03:53;2.80;;;0.70;;
29044;SDS011;16133;49.486;12.176;2024-02-23T13:06:18;3.10;;;0.73;;
29044;SDS011;16133;49.486;12.176;2024-02-23T13:08:44;1.85;;;0.70;;
29044;SDS011;16133;49.486;12.176;2024-02-23T13:11:09;1.73;;;0.82;;
29044;SDS011;16133;49.486;12.176;2024-02-23T13:13:34;1.15;;;0.85;;
29044;SDS011;16133;49.486;12.176;2024-02-23T13:16:00;1.38;;;0.68;;
29044;SDS011;16133;49.486;12.176;2024-02-23T13:18:25;3.65;;;0.50;;
29044;SDS011;16133;49.486;12.176;2024-02-23T13:20:50;0.75;;;0.50;;
29044;SDS011;16133;49.486;12.176;2024-02-23T13:23:16;1.60;;;0.68;;
29044;SDS011;16133;49.486;12.176;2024-02-23T13:25:42;2.28;;;1.10;;
29044;SDS011;16133;49.486;12.176;2024-02-23T13:28:08;0.77;;;0.68;;
29044;SDS011;16133;49.486;12.176;2024-02-23T13:30:34;2.88;;;0.52;;
29044;SDS011;16133;49.486;12.176;2024-02-23T13:33:01;4.50;;;0.75;;
29044;SDS011;16133;49.486;12.176;2024-02-23T13:35:26;0.93;;;0.60;;
29044;SDS011;16133;49.486;12.176;2024-02-23T13:37:52;1.77;;;1.17;;
29044;SDS011;16133;49.486;12.176;2024-02-23T13:40:18;4.57;;;0.98;;
29044;SDS011;16133;49.486;12.176;2024-02-23T13:42:43;3.33;;;1.25;;
29044;SDS011;16133;49.486;12.176;2024-02-23T13:45:15;1.65;;;1.20;;
29044;SDS011;16133;49.486;12.176;2024-02-23T13:47:41;2.28;;;1.20;;
29044;SDS011;16133;49.486;12.176;2024-02-23T13:50:08;4.97;;;1.70;;
29044;SDS011;16133;49.486;12.176;2024-02-23T13:52:34;6.15;;;1.42;;
29044;SDS011;16133;49.486;12.176;2024-02-23T13:54:59;6.18;;;3.13;;
29044;SDS011;16133;49.486;12.176;2024-02-23T13:57:25;7.05;;;4.80;;
29044;SDS011;16133;49.486;12.176;2024-02-23T13:59:50;10.10;;;6.78;;
29044;SDS011;16133;49.486;12.176;2024-02-23T14:02:16;8.85;;;6.30;;
29044;SDS011;16133;49.486;12.176;2024-02-23T14:04:43;8.07;;;5.22;;
29044;SDS011;16133;49.486;12.176;2024-02-23T14:07:10;9.45;;;7.25;;
29044;SDS011;16133;49.486;12.176;2024-02-23T14:09:35;4.95;;;4.25;;
29044;SDS011;16133;49.486;12.176;2024-02-23T14:12:00;4.57;;;3.35;;
29044;SDS011;16133;49.486;12.176;2024-02-23T14:14:26;4.18;;;3.25;;
29044;SDS011;16133;49.486;12.176;2024-02-23T14:16:51;3.63;;;2.22;;
29044;SDS011;16133;49.486;12.176;2024-02-23T14:19:17;3.60;;;1.73;;
29044;SDS011;16133;49.486;12.176;2024-02-23T14:21:44;3.50;;;1.52;;
29044;SDS011;16133;49.486;12.176;2024-02-23T14:24:09;2.25;;;1.38;;
29044;SDS011;16133;49.486;12.176;2024-02-23T14:26:35;2.20;;;1.25;;